Time;durP1;ratioP1;P1;durP2;ratioP2;P2;SDS_P1;SDS_P2;PMS_P1;PMS_P2;Temp;Humidity;BMP_temperature;BMP_pressure;BME280_temperature;BME280_humidity;BME280_pressure;Samples;Min_cycle;Max_cycle;Signal;HPM_P1;HPM_P2
2021/10/18 00:01:40;;;;;;;;;;;12.10;92.70;;;;;;4332804;33;44728;-82
2021/10/18 00:04:12;;;;;;;;;;;12.10;92.70;;;;;;4332809;33;44271;-82
2021/10/18 00:06:39;;;;;;;;;;;12.10;92.70;;;;;;4332919;33;42659;-81
2021/10/18 00:09:12;;;;;;;;;;;12.10;92.70;;;;;;4331846;33;42942;-82
2021/10/18 00:11:47;;;;;;;;;;;12.10;92.60;;;;;;4331396;33;42790;-81
2021/10/18 00:14:14;;;;;;;;;;;12.10;92.60;;;;;;4331503;33;43176;-82
2021/10/18 00:16:50;;;;;;;;;;;12.10;92.60;;;;;;4332201;33;44609;-82
2021/10/18 00:19:20;;;;;;;;;;;12.10;92.60;;;;;;4331756;33;43873;-82
2021/10/18 00:21:55;;;;;;;;;;;12.10;92.60;;;;;;4332713;33;42784;-81
2021/10/18 00:24:28;;;;;;;;;;;12.10;92.70;;;;;;4331690;33;44196;-81
2021/10/18 00:26:58;;;;;;;;;;;12.10;92.60;;;;;;4332448;33;42572;-81
2021/10/18 00:29:28;;;;;;;;;;;12.00;92.60;;;;;;4331415;33;44094;-81
2021/10/18 00:31:57;;;;;;;;;;;12.00;92.60;;;;;;4332464;33;45754;-81
2021/10/18 00:34:26;;;;;;;;;;;12.00;92.70;;;;;;4332138;33;43849;-81
2021/10/18 00:36:54;;;;;;;;;;;11.90;92.70;;;;;;4332743;33;42920;-81
2021/10/18 00:39:27;;;;;;;;;;;11.90;92.70;;;;;;4330935;33;42971;-82
2021/10/18 00:41:54;;;;;;;;;;;11.90;92.80;;;;;;4332482;33;43978;-82
2021/10/18 00:44:24;;;;;;;;;;;11.90;92.80;;;;;;4331226;33;43057;-81
2021/10/18 00:46:59;;;;;;;;;;;11.80;92.80;;;;;;4331251;33;43448;-81
2021/10/18 00:49:29;;;;;;;;;;;11.80;92.80;;;;;;4332142;33;44036;-82
2021/10/18 00:52:00;;;;;;;;;;;11.80;92.80;;;;;;4332052;33;43235;-81
2021/10/18 00:54:35;;;;;;;;;;;11.80;92.80;;;;;;4332407;33;43876;-81
2021/10/18 00:57:04;;;;;;;;;;;11.80;92.80;;;;;;4332178;33;44256;-82
2021/10/18 00:59:32;;;;;;;;;;;11.80;92.80;;;;;;4330841;33;42628;-81
2021/10/18 01:02:03;;;;;;;;;;;11.80;92.80;;;;;;4330346;33;42347;-81
2021/10/18 01:04:33;;;;;;;;;;;11.80;92.70;;;;;;4330787;33;43509;-81
2021/10/18 01:07:09;;;;;;;;;;;11.80;92.70;;;;;;4330992;33;43648;-81
2021/10/18 01:09:38;;;;;;;;;;;11.80;92.70;;;;;;4332004;33;44563;-81
2021/10/18 01:12:08;;;;;;;;;;;11.80;92.70;;;;;;4330944;33;44073;-81
2021/10/18 01:14:40;;;;;;;;;;;11.80;92.60;;;;;;4332051;33;44177;-81
2021/10/18 01:17:10;;;;;;;;;;;11.80;92.60;;;;;;4331596;33;43255;-81
2021/10/18 01:19:40;;;;;;;;;;;11.80;92.70;;;;;;4330742;33;44464;-81
2021/10/18 01:22:10;;;;;;;;;;;11.70;92.70;;;;;;4331461;33;42477;-81
2021/10/18 01:24:40;;;;;;;;;;;11.70;92.70;;;;;;4331350;33;44094;-82
2021/10/18 01:27:13;;;;;;;;;;;11.70;92.70;;;;;;4331238;33;44190;-81
2021/10/18 01:29:43;;;;;;;;;;;11.70;92.70;;;;;;4331783;33;43960;-82
2021/10/18 01:32:18;;;;;;;;;;;11.70;92.60;;;;;;4332618;33;20044;-82
2021/10/18 01:34:51;;;;;;;;;;;11.70;92.60;;;;;;4331681;33;43854;-81
2021/10/18 01:37:23;;;;;;;;;;;11.70;92.60;;;;;;4331805;33;43641;-82
2021/10/18 01:39:59;;;;;;;;;;;11.70;92.60;;;;;;4331497;33;44057;-81
2021/10/18 01:42:28;;;;;;;;;;;11.70;92.50;;;;;;4330618;33;43318;-81
2021/10/18 01:45:02;;;;;;;;;;;11.70;92.50;;;;;;4330855;33;43094;-82
2021/10/18 01:47:29;;;;;;;;;;;11.70;92.50;;;;;;4330947;33;42679;-81
2021/10/18 01:49:56;;;;;;;;;;;11.80;92.50;;;;;;4331254;33;43814;-81
2021/10/18 01:52:41;;;;;;;;;;;11.70;92.40;;;;;;4330149;33;43206;-81
2021/10/18 01:55:09;;;;;;;;;;;11.70;92.40;;;;;;4330259;33;46004;-81
2021/10/18 01:57:38;;;;;;;;;;;11.80;92.50;;;;;;4330229;33;44269;-81
2021/10/18 02:00:10;;;;;;;;;;;11.80;92.40;;;;;;4329949;33;42691;-81
2021/10/18 02:02:40;;;;;;;;;;;11.70;92.40;;;;;;4330271;33;20407;-81
2021/10/18 02:05:10;;;;;;;;;;;11.70;92.40;;;;;;4330973;33;43172;-81
2021/10/18 02:07:39;;;;;;;;;;;11.70;92.40;;;;;;4331070;33;45126;-81
2021/10/18 02:10:09;;;;;;;;;;;11.70;92.40;;;;;;4331148;33;43552;-81
2021/10/18 02:12:36;;;;;;;;;;;11.70;92.40;;;;;;4329827;33;42588;-81
2021/10/18 02:15:06;;;;;;;;;;;11.70;92.40;;;;;;4329633;33;43008;-81
2021/10/18 02:17:40;;;;;;;;;;;11.70;92.40;;;;;;4329668;33;43626;-81
2021/10/18 02:20:11;;;;;;;;;;;11.70;92.40;;;;;;4330627;33;42621;-81
2021/10/18 02:22:41;;;;;;;;;;;11.70;92.40;;;;;;4329938;33;44579;-81
2021/10/18 02:25:10;;;;;;;;;;;11.70;92.40;;;;;;4330573;33;42996;-81
2021/10/18 02:27:39;;;;;;;;;;;11.70;92.40;;;;;;4330468;33;43277;-82
2021/10/18 02:30:12;;;;;;;;;;;11.70;92.40;;;;;;4329912;33;42656;-81
2021/10/18 02:32:43;;;;;;;;;;;11.60;92.30;;;;;;4330583;33;20010;-81
2021/10/18 02:35:10;;;;;;;;;;;11.60;92.30;;;;;;4330767;33;44122;-82
2021/10/18 02:37:37;;;;;;;;;;;11.60;92.30;;;;;;4329459;33;42815;-81
2021/10/18 02:40:05;;;;;;;;;;;11.60;92.30;;;;;;4330826;33;43586;-81
2021/10/18 02:42:34;;;;;;;;;;;11.60;92.30;;;;;;4330309;33;43256;-81
2021/10/18 02:45:04;;;;;;;;;;;11.60;92.30;;;;;;4329144;33;43490;-81
2021/10/18 02:47:31;;;;;;;;;;;11.60;92.30;;;;;;4329744;33;43463;-81
2021/10/18 02:50:03;;;;;;;;;;;11.60;92.30;;;;;;4330688;33;42676;-81
2021/10/18 02:52:35;;;;;;;;;;;11.60;92.30;;;;;;4330374;33;44179;-81
2021/10/18 02:55:03;;;;;;;;;;;11.60;92.30;;;;;;4329821;33;43974;-81
2021/10/18 02:57:30;;;;;;;;;;;11.60;92.30;;;;;;4329587;33;43472;-81
2021/10/18 02:59:57;;;;;;;;;;;11.60;92.20;;;;;;4330815;33;45177;-81
2021/10/18 03:02:30;;;;;;;;;;;11.50;92.20;;;;;;4329942;33;43889;-81
2021/10/18 03:05:03;;;;;;;;;;;11.50;92.20;;;;;;4329951;33;20005;-81
2021/10/18 03:07:33;;;;;;;;;;;11.50;92.20;;;;;;4330553;33;43288;-81
2021/10/18 03:10:00;;;;;;;;;;;11.50;92.20;;;;;;4330367;33;42882;-81
2021/10/18 03:12:27;;;;;;;;;;;11.50;92.20;;;;;;4330622;33;44026;-81
2021/10/18 03:14:59;;;;;;;;;;;11.50;92.20;;;;;;4330021;33;43898;-81
2021/10/18 03:17:31;;;;;;;;;;;11.50;92.20;;;;;;4330221;33;44091;-81
2021/10/18 03:20:01;;;;;;;;;;;11.50;92.20;;;;;;4330719;33;42655;-81
2021/10/18 03:22:28;;;;;;;;;;;11.50;92.20;;;;;;4330563;33;43162;-81
2021/10/18 03:24:55;;;;;;;;;;;11.50;92.20;;;;;;4329223;33;43287;-81
2021/10/18 03:27:22;;;;;;;;;;;11.40;92.20;;;;;;4328904;33;43866;-81
2021/10/18 03:29:52;;;;;;;;;;;11.40;92.20;;;;;;4329947;33;44266;-81
2021/10/18 03:32:22;;;;;;;;;;;11.40;92.20;;;;;;4330441;33;43971;-81
2021/10/18 03:34:51;;;;;;;;;;;11.40;92.20;;;;;;4329859;33;43964;-81
2021/10/18 03:37:21;;;;;;;;;;;11.40;92.20;;;;;;4330502;33;44285;-82
2021/10/18 03:39:56;;;;;;;;;;;11.40;92.20;;;;;;4330425;33;44253;-81
2021/10/18 03:42:24;;;;;;;;;;;11.40;92.20;;;;;;4329167;33;44180;-81
2021/10/18 03:44:51;;;;;;;;;;;11.40;92.20;;;;;;4330012;33;44168;-81
2021/10/18 03:47:18;;;;;;;;;;;11.40;92.20;;;;;;4328769;33;44139;-81
2021/10/18 03:49:46;;;;;;;;;;;11.40;92.20;;;;;;4329046;33;43685;-82
2021/10/18 03:52:18;;;;;;;;;;;11.40;92.50;;;;;;4329793;33;45200;-81
2021/10/18 03:54:47;;;;;;;;;;;11.40;92.20;;;;;;4329114;33;43699;-81
2021/10/18 03:57:16;;;;;;;;;;;11.40;92.20;;;;;;4329830;33;42641;-81
2021/10/18 03:59:46;;;;;;;;;;;11.30;92.10;;;;;;4328816;33;43259;-81
2021/10/18 04:02:14;;;;;;;;;;;11.30;92.10;;;;;;4329601;33;42007;-81
2021/10/18 04:04:44;;;;;;;;;;;11.30;92.10;;;;;;4329135;33;43489;-81
2021/10/18 04:07:11;;;;;;;;;;;11.30;92.10;;;;;;4330343;33;43247;-81
2021/10/18 04:09:45;;;;;;;;;;;11.30;92.10;;;;;;4331368;33;43851;-81
2021/10/18 04:12:17;;;;;;;;;;;11.30;92.10;;;;;;4331383;33;43790;-81
2021/10/18 04:14:50;;;;;;;;;;;11.30;92.10;;;;;;4331837;33;44142;-81
2021/10/18 04:17:20;;;;;;;;;;;11.30;92.10;;;;;;4332205;33;43910;-81
2021/10/18 04:19:47;;;;;;;;;;;11.30;92.10;;;;;;4332692;33;42077;-81
2021/10/18 04:22:19;;;;;;;;;;;11.30;92.10;;;;;;4331197;33;43599;-82
2021/10/18 04:24:49;;;;;;;;;;;11.30;92.10;;;;;;4332792;33;44400;-81
2021/10/18 04:27:18;;;;;;;;;;;11.20;92.00;;;;;;4332041;33;45661;-82
2021/10/18 04:29:45;;;;;;;;;;;11.20;92.10;;;;;;4331089;33;42886;-81
2021/10/18 04:32:12;;;;;;;;;;;11.30;92.10;;;;;;4332669;33;43477;-81
2021/10/18 04:34:43;;;;;;;;;;;11.20;92.10;;;;;;4330934;33;45159;-81
2021/10/18 04:37:10;;;;;;;;;;;11.20;92.10;;;;;;4331907;33;20010;-81
2021/10/18 04:39:40;;;;;;;;;;;11.20;92.10;;;;;;4331974;33;44255;-81
2021/10/18 04:42:15;;;;;;;;;;;11.20;92.10;;;;;;4331386;33;43243;-81
2021/10/18 04:44:42;;;;;;;;;;;11.20;92.10;;;;;;4332354;33;42522;-81
2021/10/18 04:47:12;;;;;;;;;;;11.20;92.10;;;;;;4330718;33;44225;-81
2021/10/18 04:49:39;;;;;;;;;;;11.20;92.10;;;;;;4332202;33;44028;-81
2021/10/18 04:52:06;;;;;;;;;;;11.20;92.10;;;;;;4331762;33;42724;-82
2021/10/18 04:54:36;;;;;;;;;;;11.10;92.10;;;;;;4332273;33;45430;-81
2021/10/18 04:57:06;;;;;;;;;;;11.10;92.00;;;;;;4332395;33;43871;-81
2021/10/18 04:59:33;;;;;;;;;;;11.10;92.00;;;;;;4332202;33;43213;-81
2021/10/18 05:02:00;;;;;;;;;;;11.10;92.00;;;;;;4331526;33;43479;-81
2021/10/18 05:04:28;;;;;;;;;;;11.10;92.00;;;;;;4332138;33;43518;-81
2021/10/18 05:06:57;;;;;;;;;;;11.10;92.00;;;;;;4331531;33;43290;-81
2021/10/18 05:09:33;;;;;;;;;;;11.00;92.10;;;;;;4331688;33;44120;-81
2021/10/18 05:12:03;;;;;;;;;;;11.00;92.10;;;;;;4331997;33;43328;-81
2021/10/18 05:14:31;;;;;;;;;;;11.00;92.10;;;;;;4332100;33;46027;-81
2021/10/18 05:16:58;;;;;;;;;;;11.00;92.10;;;;;;4331492;33;42563;-82
2021/10/18 05:19:31;;;;;;;;;;;11.00;92.10;;;;;;4331342;33;43872;-81
2021/10/18 05:21:58;;;;;;;;;;;11.00;92.10;;;;;;4331447;33;44230;-81
2021/10/18 05:24:25;;;;;;;;;;;11.00;92.10;;;;;;4331800;33;42313;-82
2021/10/18 05:26:52;;;;;;;;;;;11.00;92.10;;;;;;4330615;33;42018;-81
2021/10/18 05:29:19;;;;;;;;;;;11.00;92.10;;;;;;4331512;33;42867;-82
2021/10/18 05:31:46;;;;;;;;;;;10.90;92.10;;;;;;4331243;33;43525;-81
2021/10/18 05:34:13;;;;;;;;;;;11.00;92.10;;;;;;4331749;33;45823;-81
2021/10/18 05:36:43;;;;;;;;;;;10.90;92.10;;;;;;4330565;33;43487;-81
2021/10/18 05:39:13;;;;;;;;;;;10.90;92.10;;;;;;4331703;33;44095;-81
2021/10/18 05:41:43;;;;;;;;;;;10.90;92.20;;;;;;4330133;33;43782;-81
2021/10/18 05:44:13;;;;;;;;;;;10.90;92.30;;;;;;4331212;33;43922;-81
2021/10/18 05:46:45;;;;;;;;;;;10.90;92.30;;;;;;4330955;33;42571;-81
2021/10/18 05:49:18;;;;;;;;;;;10.80;92.30;;;;;;4331439;33;45910;-81
2021/10/18 05:51:48;;;;;;;;;;;10.80;92.40;;;;;;4330449;33;43645;-81
2021/10/18 05:54:15;;;;;;;;;;;10.80;92.40;;;;;;4329996;33;44748;-81
2021/10/18 05:56:44;;;;;;;;;;;10.80;92.50;;;;;;4330206;33;44037;-81
2021/10/18 05:59:14;;;;;;;;;;;10.70;92.50;;;;;;4331127;33;37960;-81
2021/10/18 06:01:44;;;;;;;;;;;10.70;92.60;;;;;;4329562;33;43098;-81
2021/10/18 06:04:14;;;;;;;;;;;10.70;92.60;;;;;;4331463;33;43912;-81
2021/10/18 06:06:44;;;;;;;;;;;10.60;92.70;;;;;;4331254;33;43478;-81
2021/10/18 06:09:14;;;;;;;;;;;10.60;92.70;;;;;;4331534;33;20020;-81
2021/10/18 06:11:45;;;;;;;;;;;10.60;92.70;;;;;;4330714;33;43314;-81
2021/10/18 06:14:12;;;;;;;;;;;10.60;92.80;;;;;;4331026;33;44003;-81
2021/10/18 06:16:41;;;;;;;;;;;10.60;92.80;;;;;;4330023;33;43062;-81
2021/10/18 06:19:11;;;;;;;;;;;10.60;92.80;;;;;;4331065;33;43241;-81
2021/10/18 06:21:38;;;;;;;;;;;10.50;92.80;;;;;;4330570;33;43088;-81
2021/10/18 06:24:06;;;;;;;;;;;10.50;92.90;;;;;;4330702;33;43972;-81
2021/10/18 06:26:34;;;;;;;;;;;10.50;92.90;;;;;;4329606;33;43966;-81
2021/10/18 06:29:06;;;;;;;;;;;10.50;92.90;;;;;;4330553;33;44125;-81
2021/10/18 06:31:33;;;;;;;;;;;10.50;92.90;;;;;;4330857;33;43068;-81
2021/10/18 06:34:00;;;;;;;;;;;10.50;92.90;;;;;;4330374;33;44306;-82
2021/10/18 06:36:30;;;;;;;;;;;10.50;92.90;;;;;;4330885;33;42470;-81
2021/10/18 06:38:57;;;;;;;;;;;10.50;93.10;;;;;;4330853;33;43205;-81
2021/10/18 06:41:28;;;;;;;;;;;10.50;93.30;;;;;;4329849;33;43936;-81
2021/10/18 06:43:57;;;;;;;;;;;10.50;93.00;;;;;;4330779;33;42057;-81
2021/10/18 06:46:28;;;;;;;;;;;10.50;93.00;;;;;;4329492;33;45687;-82
2021/10/18 06:48:58;;;;;;;;;;;10.50;93.00;;;;;;4329354;33;44110;-81
2021/10/18 06:51:32;;;;;;;;;;;10.50;93.00;;;;;;4330462;33;44172;-81
2021/10/18 06:54:04;;;;;;;;;;;10.50;93.00;;;;;;4329806;33;43264;-82
2021/10/18 06:56:36;;;;;;;;;;;10.50;93.00;;;;;;4330661;33;43066;-81
2021/10/18 06:59:03;;;;;;;;;;;10.50;93.00;;;;;;4330766;33;44059;-81
2021/10/18 07:01:32;;;;;;;;;;;10.60;93.00;;;;;;4329988;33;44301;-81
2021/10/18 07:04:05;;;;;;;;;;;10.50;93.00;;;;;;4330591;33;44657;-81
2021/10/18 07:06:34;;;;;;;;;;;10.50;93.00;;;;;;4329365;33;42761;-81
2021/10/18 07:09:02;;;;;;;;;;;10.50;93.00;;;;;;4330004;33;44125;-81
2021/10/18 07:11:29;;;;;;;;;;;10.60;93.10;;;;;;4330084;33;42643;-81
2021/10/18 07:13:56;;;;;;;;;;;10.50;93.00;;;;;;4329257;33;43081;-81
2021/10/18 07:16:23;;;;;;;;;;;10.50;93.00;;;;;;4329555;33;42967;-81
2021/10/18 07:18:51;;;;;;;;;;;10.50;93.00;;;;;;4330526;33;43904;-81
2021/10/18 07:21:18;;;;;;;;;;;10.50;93.10;;;;;;4330035;33;43489;-81
2021/10/18 07:23:51;;;;;;;;;;;10.60;93.10;;;;;;4330445;33;43530;-81
2021/10/18 07:26:19;;;;;;;;;;;10.60;93.10;;;;;;4330407;33;44636;-81
2021/10/18 07:28:46;;;;;;;;;;;10.60;93.10;;;;;;4330130;33;43878;-81
2021/10/18 07:31:15;;;;;;;;;;;10.60;93.10;;;;;;4330240;33;44217;-81
2021/10/18 07:33:45;;;;;;;;;;;10.60;93.10;;;;;;4330288;33;42951;-81
2021/10/18 07:36:21;;;;;;;;;;;10.60;93.10;;;;;;4328938;33;43060;-81
2021/10/18 07:38:51;;;;;;;;;;;10.60;93.10;;;;;;4330202;33;43191;-81
2021/10/18 07:41:24;;;;;;;;;;;10.70;93.10;;;;;;4329964;33;20002;-81
2021/10/18 07:43:54;;;;;;;;;;;10.70;93.10;;;;;;4332363;33;44312;-81
2021/10/18 07:46:21;;;;;;;;;;;10.70;93.10;;;;;;4331638;33;44139;-81
2021/10/18 07:48:51;;;;;;;;;;;10.70;93.10;;;;;;4331680;33;43129;-81
2021/10/18 07:51:20;;;;;;;;;;;10.70;93.10;;;;;;4331577;33;42909;-81
2021/10/18 07:53:47;;;;;;;;;;;10.70;93.10;;;;;;4332590;33;44952;-81
2021/10/18 07:56:16;;;;;;;;;;;10.70;93.10;;;;;;4332971;33;44278;-82
2021/10/18 07:58:47;;;;;;;;;;;10.70;93.00;;;;;;4333276;33;44259;-81
2021/10/18 08:01:16;;;;;;;;;;;10.70;93.10;;;;;;4331374;33;44263;-81
2021/10/18 08:03:43;;;;;;;;;;;10.70;93.10;;;;;;4331938;33;44026;-81
2021/10/18 08:06:11;;;;;;;;;;;10.70;93.10;;;;;;4332504;33;44160;-81
2021/10/18 08:08:50;;;;;;;;;;;10.70;93.10;;;;;;4332576;33;42981;-81
2021/10/18 08:11:17;;;;;;;;;;;10.70;93.20;;;;;;4331818;33;45012;-81
2021/10/18 08:13:44;;;;;;;;;;;10.70;93.10;;;;;;4332350;33;42616;-81
2021/10/18 08:16:17;;;;;;;;;;;10.70;93.20;;;;;;4332330;33;43756;-81
2021/10/18 08:18:44;;;;;;;;;;;10.70;93.20;;;;;;4331969;33;44293;-81
2021/10/18 08:21:15;;;;;;;;;;;10.70;93.20;;;;;;4331356;33;43367;-81
2021/10/18 08:23:42;;;;;;;;;;;10.70;93.10;;;;;;4331450;33;43022;-81
2021/10/18 08:26:20;;;;;;;;;;;10.70;93.50;;;;;;4332200;33;42651;-82
2021/10/18 08:28:47;;;;;;;;;;;10.70;93.10;;;;;;4331429;33;43797;-82
2021/10/18 08:31:18;;;;;;;;;;;10.80;93.20;;;;;;4332167;33;43976;-81
2021/10/18 08:33:48;;;;;;;;;;;10.80;93.20;;;;;;4332096;33;42526;-81
2021/10/18 08:36:23;;;;;;;;;;;10.80;93.20;;;;;;4332066;33;44301;-81
2021/10/18 08:38:52;;;;;;;;;;;10.70;93.20;;;;;;4332480;33;42726;-81
2021/10/18 08:41:33;;;;;;;;;;;10.80;93.20;;;;;;4332510;33;42982;-81
2021/10/18 08:44:16;;;;;;;;;;;10.80;93.20;;;;;;4331512;33;43187;-81
2021/10/18 08:46:58;;;;;;;;;;;10.90;93.20;;;;;;4331407;33;45001;-82
2021/10/18 08:49:26;;;;;;;;;;;10.80;93.10;;;;;;4332376;33;44718;-82
2021/10/18 08:51:56;;;;;;;;;;;10.90;93.20;;;;;;4331213;33;46445;-81
2021/10/18 08:54:26;;;;;;;;;;;10.90;93.20;;;;;;4331127;33;43020;-82
2021/10/18 08:56:56;;;;;;;;;;;10.90;93.20;;;;;;4330970;33;43096;-81
2021/10/18 08:59:24;;;;;;;;;;;11.00;93.20;;;;;;4331115;33;42850;-82
2021/10/18 09:01:59;;;;;;;;;;;11.00;93.20;;;;;;4330702;33;43034;-82
2021/10/18 09:04:28;;;;;;;;;;;11.00;93.20;;;;;;4330705;33;42841;-81
2021/10/18 09:07:12;;;;;;;;;;;11.00;93.10;;;;;;4330844;33;43235;-82
2021/10/18 09:10:00;;;;;;;;;;;11.00;93.10;;;;;;4330984;33;44102;-81
2021/10/18 09:12:39;;;;;;;;;;;11.10;93.20;;;;;;4330844;33;45391;-81
2021/10/18 09:15:26;;;;;;;;;;;11.10;93.20;;;;;;4331415;33;20032;-81
2021/10/18 09:18:04;;;;;;;;;;;11.10;93.10;;;;;;4331705;33;44164;-80
2021/10/18 09:20:45;;;;;;;;;;;11.20;93.20;;;;;;4331971;33;43239;-81
2021/10/18 09:23:28;;;;;;;;;;;11.30;93.20;;;;;;4330846;33;44209;-81
2021/10/18 09:26:04;;;;;;;;;;;11.30;93.00;;;;;;4330457;33;42878;-81
2021/10/18 09:28:32;;;;;;;;;;;11.30;93.00;;;;;;4330845;33;44228;-81
2021/10/18 09:31:00;;;;;;;;;;;11.40;93.00;;;;;;4330554;33;43896;-81
2021/10/18 09:33:38;;;;;;;;;;;11.40;92.90;;;;;;4331182;33;43801;-81
2021/10/18 09:36:09;;;;;;;;;;;11.50;92.90;;;;;;4331424;33;42352;-81
2021/10/18 09:38:39;;;;;;;;;;;11.50;92.90;;;;;;4331068;33;43199;-81
2021/10/18 09:41:09;;;;;;;;;;;11.50;92.90;;;;;;4331152;33;43482;-81
2021/10/18 09:44:05;;;;;;;;;;;11.60;92.90;;;;;;4331614;33;44977;-81
2021/10/18 09:46:37;;;;;;;;;;;11.50;92.90;;;;;;4331164;33;20374;-81
2021/10/18 10:53:21;;;;;;;;;;;12.70;92.20;;;;;;4330803;33;43096;-83
2021/10/18 10:55:54;;;;;;;;;;;12.80;92.00;;;;;;4329723;33;43024;-82
2021/10/18 10:58:33;;;;;;;;;;;12.80;92.00;;;;;;4329662;33;42898;-81
2021/10/18 11:01:04;;;;;;;;;;;12.90;92.10;;;;;;4329691;33;43793;-81
2021/10/18 11:03:41;;;;;;;;;;;12.90;92.00;;;;;;4329493;33;42620;-82
2021/10/18 11:06:11;;;;;;;;;;;12.90;91.90;;;;;;4329284;33;43012;-84
2021/10/18 11:08:46;;;;;;;;;;;12.90;91.80;;;;;;4330394;33;43697;-82
2021/10/18 11:11:22;;;;;;;;;;;13.00;91.70;;;;;;4330727;33;43858;-82
2021/10/18 11:13:58;;;;;;;;;;;13.10;91.70;;;;;;4330532;33;45811;-82
2021/10/18 11:16:30;;;;;;;;;;;13.10;91.70;;;;;;4330570;33;44482;-81
2021/10/18 11:19:02;;;;;;;;;;;13.10;91.70;;;;;;4333608;33;20060;-82
2021/10/18 11:21:38;;;;;;;;;;;13.10;91.70;;;;;;4333167;33;42292;-82
2021/10/18 11:24:14;;;;;;;;;;;13.20;91.70;;;;;;4332448;33;43989;-82
2021/10/18 11:26:55;;;;;;;;;;;13.20;91.50;;;;;;4333631;33;45383;-82
2021/10/18 11:29:35;;;;;;;;;;;13.30;91.50;;;;;;4332456;33;45536;-82
2021/10/18 11:32:09;;;;;;;;;;;13.30;91.50;;;;;;4333542;33;44237;-82
2021/10/18 11:34:42;;;;;;;;;;;13.40;91.70;;;;;;4333259;33;43077;-82
2021/10/18 11:37:09;;;;;;;;;;;13.40;91.50;;;;;;4333119;33;43781;-82
2021/10/18 11:39:36;;;;;;;;;;;13.50;91.60;;;;;;4333061;33;44813;-82
2021/10/18 11:42:13;;;;;;;;;;;13.50;91.60;;;;;;4332828;33;42852;-83
2021/10/18 11:44:52;;;;;;;;;;;13.60;91.60;;;;;;4333119;33;42701;-82
2021/10/18 11:47:22;;;;;;;;;;;13.60;91.60;;;;;;4333204;33;42623;-82
2021/10/18 11:50:02;;;;;;;;;;;13.60;91.60;;;;;;4333930;33;20037;-81
2021/10/18 11:52:30;;;;;;;;;;;13.70;91.60;;;;;;4333142;33;43778;-83
2021/10/18 11:55:08;;;;;;;;;;;13.70;91.40;;;;;;4332749;33;43663;-82
2021/10/18 11:57:42;;;;;;;;;;;13.80;91.40;;;;;;4332071;33;42838;-82
2021/10/18 12:00:17;;;;;;;;;;;13.90;91.30;;;;;;4331807;33;42674;-82
2021/10/18 12:02:50;;;;;;;;;;;13.90;91.40;;;;;;4331634;33;43926;-83
2021/10/18 12:05:18;;;;;;;;;;;14.00;91.20;;;;;;4331678;33;43899;-82
2021/10/18 12:07:52;;;;;;;;;;;14.10;91.20;;;;;;4332930;33;43029;-81
2021/10/18 12:10:29;;;;;;;;;;;14.10;91.20;;;;;;4332924;33;43169;-81
2021/10/18 12:13:05;;;;;;;;;;;14.10;91.10;;;;;;4332883;33;45012;-82
2021/10/18 12:15:47;;;;;;;;;;;14.20;91.20;;;;;;4331591;33;43062;-82
2021/10/18 12:18:18;;;;;;;;;;;14.20;91.20;;;;;;4331710;33;42617;-82
2021/10/18 12:20:54;;;;;;;;;;;14.30;91.30;;;;;;4333803;33;20061;-81
2021/10/18 12:23:25;;;;;;;;;;;14.30;91.30;;;;;;4331231;33;42823;-82
2021/10/18 12:25:56;;;;;;;;;;;14.30;91.40;;;;;;4332225;33;42561;-82
2021/10/18 12:28:32;;;;;;;;;;;14.30;91.30;;;;;;4331532;33;43177;-82
2021/10/18 12:30:59;;;;;;;;;;;14.30;91.40;;;;;;4332525;33;43769;-82
2021/10/18 12:33:34;;;;;;;;;;;14.30;91.40;;;;;;4332630;33;42950;-81
2021/10/18 12:36:05;;;;;;;;;;;14.30;91.40;;;;;;4332647;33;44253;-81
2021/10/18 12:38:39;;;;;;;;;;;14.30;91.40;;;;;;4332617;33;44187;-82
2021/10/18 12:41:15;;;;;;;;;;;14.30;91.40;;;;;;4332054;33;43446;-82
2021/10/18 12:43:42;;;;;;;;;;;14.30;91.40;;;;;;4330921;33;42118;-81
2021/10/18 12:46:28;;;;;;;;;;;14.30;91.40;;;;;;4331898;33;43560;-81
2021/10/18 12:49:06;;;;;;;;;;;14.40;91.50;;;;;;4332413;33;44153;-82
2021/10/18 12:51:37;;;;;;;;;;;14.30;91.50;;;;;;4331950;33;20005;-81
2021/10/18 12:54:18;;;;;;;;;;;14.40;91.50;;;;;;4331065;33;42743;-82
2021/10/18 12:57:05;;;;;;;;;;;14.40;91.50;;;;;;4332460;33;44326;-82
2021/10/18 12:59:37;;;;;;;;;;;14.40;91.50;;;;;;4332252;33;43345;-81
2021/10/18 13:02:16;;;;;;;;;;;14.40;91.50;;;;;;4332125;33;43839;-82
2021/10/18 13:05:02;;;;;;;;;;;14.40;91.60;;;;;;4332100;33;43350;-81
2021/10/18 13:07:29;;;;;;;;;;;14.50;91.60;;;;;;4331682;33;42716;-81
2021/10/18 13:09:56;;;;;;;;;;;14.50;91.60;;;;;;4330493;33;43368;-81
2021/10/18 13:12:26;;;;;;;;;;;14.50;91.60;;;;;;4330505;33;42645;-81
2021/10/18 13:14:57;;;;;;;;;;;14.50;91.60;;;;;;4330527;33;44270;-82
2021/10/18 13:17:26;;;;;;;;;;;14.60;91.60;;;;;;4332075;33;44181;-81
2021/10/18 13:19:57;;;;;;;;;;;14.60;91.60;;;;;;4331972;33;43177;-82
2021/10/18 13:22:30;;;;;;;;;;;14.70;91.70;;;;;;4331966;33;42315;-83
2021/10/18 13:24:57;;;;;;;;;;;14.70;91.50;;;;;;4332037;33;44215;-82
2021/10/18 13:27:27;;;;;;;;;;;14.70;91.50;;;;;;4331739;33;43786;-81
2021/10/18 13:29:57;;;;;;;;;;;14.70;91.50;;;;;;4331282;33;43855;-82
2021/10/18 13:32:43;;;;;;;;;;;14.70;91.60;;;;;;4331836;33;43745;-82
2021/10/18 13:35:13;;;;;;;;;;;14.80;91.70;;;;;;4330186;33;42882;-82
2021/10/18 13:37:43;;;;;;;;;;;14.80;91.70;;;;;;4330433;33;45898;-82
2021/10/18 13:40:13;;;;;;;;;;;14.80;91.70;;;;;;4331127;33;42137;-83
2021/10/18 13:42:43;;;;;;;;;;;14.80;91.70;;;;;;4330745;33;44064;-81
2021/10/18 13:45:13;;;;;;;;;;;14.80;91.70;;;;;;4331313;33;43338;-81
2021/10/18 13:47:42;;;;;;;;;;;14.80;91.80;;;;;;4330083;33;44142;-81
2021/10/18 13:50:12;;;;;;;;;;;14.90;91.80;;;;;;4331498;33;43939;-82
2021/10/18 13:52:39;;;;;;;;;;;14.90;91.80;;;;;;4331107;33;43784;-82
2021/10/18 13:55:10;;;;;;;;;;;14.90;91.70;;;;;;4330023;33;42912;-81
2021/10/18 13:57:44;;;;;;;;;;;14.90;91.70;;;;;;4331475;33;43243;-82
2021/10/18 14:00:14;;;;;;;;;;;14.90;91.70;;;;;;4331607;33;43855;-82
2021/10/18 14:02:47;;;;;;;;;;;15.00;91.80;;;;;;4330689;33;43688;-82
2021/10/18 14:05:16;;;;;;;;;;;15.00;91.70;;;;;;4330193;33;45749;-81
2021/10/18 14:07:46;;;;;;;;;;;15.00;91.70;;;;;;4329808;33;43172;-81
2021/10/18 14:10:19;;;;;;;;;;;15.00;91.70;;;;;;4331067;33;43048;-81
2021/10/18 14:12:51;;;;;;;;;;;15.10;91.70;;;;;;4330720;33;43945;-81
2021/10/18 14:15:18;;;;;;;;;;;15.10;91.70;;;;;;4331137;33;45297;-82
2021/10/18 14:17:48;;;;;;;;;;;15.20;91.80;;;;;;4330690;33;42923;-82
2021/10/18 14:20:21;;;;;;;;;;;15.20;91.70;;;;;;4331160;33;44019;-82
2021/10/18 14:22:54;;;;;;;;;;;15.20;91.80;;;;;;4332105;33;19998;-82
2021/10/18 14:25:21;;;;;;;;;;;15.20;91.60;;;;;;4329963;33;44248;-82
2021/10/18 14:27:50;;;;;;;;;;;15.30;91.70;;;;;;4331047;33;43962;-81
2021/10/18 14:30:17;;;;;;;;;;;15.30;91.70;;;;;;4330438;33;43796;-82
2021/10/18 14:32:53;;;;;;;;;;;15.40;91.70;;;;;;4329448;33;42871;-83
2021/10/18 14:35:21;;;;;;;;;;;15.40;91.70;;;;;;4330051;33;43045;-82
2021/10/18 14:37:57;;;;;;;;;;;15.40;91.80;;;;;;4330092;33;43942;-82
2021/10/18 14:40:27;;;;;;;;;;;15.40;91.60;;;;;;4330774;33;43358;-83
2021/10/18 14:42:58;;;;;;;;;;;15.40;91.60;;;;;;4330917;33;42898;-82
2021/10/18 14:45:27;;;;;;;;;;;15.50;91.70;;;;;;4330833;33;45684;-82
2021/10/18 14:48:00;;;;;;;;;;;15.40;91.70;;;;;;4330502;33;42721;-82
2021/10/18 14:50:27;;;;;;;;;;;15.50;91.70;;;;;;4329212;33;43028;-82
2021/10/18 14:53:01;;;;;;;;;;;15.40;91.70;;;;;;4331661;33;20002;-82
2021/10/18 14:55:41;;;;;;;;;;;15.40;91.70;;;;;;4329679;33;43496;-81
2021/10/18 14:58:12;;;;;;;;;;;15.50;91.70;;;;;;4330190;33;44252;-82
2021/10/18 15:00:44;;;;;;;;;;;15.50;91.70;;;;;;4330919;33;43940;-82
2021/10/18 15:03:14;;;;;;;;;;;15.40;91.70;;;;;;4329226;33;43016;-82
2021/10/18 15:05:46;;;;;;;;;;;15.50;91.80;;;;;;4329453;33;43459;-82
2021/10/18 15:08:17;;;;;;;;;;;15.50;91.80;;;;;;4330871;33;45075;-82
2021/10/18 15:10:44;;;;;;;;;;;15.50;91.80;;;;;;4329416;33;43472;-82
2021/10/18 15:13:11;;;;;;;;;;;15.40;91.80;;;;;;4330564;33;43870;-82
2021/10/18 15:15:38;;;;;;;;;;;15.50;91.80;;;;;;4330339;33;44373;-82
2021/10/18 15:18:08;;;;;;;;;;;15.50;91.90;;;;;;4330026;33;45046;-82
2021/10/18 15:20:44;;;;;;;;;;;15.50;91.90;;;;;;4330555;33;45116;-82
2021/10/18 15:23:14;;;;;;;;;;;15.50;91.90;;;;;;4330169;33;20002;-83
2021/10/18 15:25:43;;;;;;;;;;;15.40;91.90;;;;;;4330632;33;43857;-82
2021/10/18 15:28:16;;;;;;;;;;;15.40;91.90;;;;;;4330278;33;43478;-82
2021/10/18 15:30:49;;;;;;;;;;;15.40;91.90;;;;;;4330566;33;43433;-82
2021/10/18 15:33:16;;;;;;;;;;;15.40;92.00;;;;;;4330586;33;43157;-81
2021/10/18 15:35:46;;;;;;;;;;;15.40;92.00;;;;;;4330228;33;42867;-82
2021/10/18 15:38:13;;;;;;;;;;;15.40;91.90;;;;;;4329912;33;43382;-82
2021/10/18 15:40:43;;;;;;;;;;;15.40;92.00;;;;;;4330391;33;44231;-82
2021/10/18 15:43:10;;;;;;;;;;;15.40;92.00;;;;;;4330199;33;43388;-82